createdAt,value
2023-11-30T00:00:19.825Z,8.20
2023-11-30T00:02:46.646Z,8.00
2023-11-30T00:05:13.653Z,7.85
2023-11-30T00:07:40.488Z,10.15
2023-11-30T00:10:07.803Z,7.95
2023-11-30T00:12:34.645Z,10.23
2023-11-30T00:15:01.484Z,7.78
2023-11-30T00:17:28.324Z,8.35
2023-11-30T00:19:55.165Z,9.07
2023-11-30T00:22:21.920Z,7.72
2023-11-30T00:24:48.884Z,10.15
2023-11-30T00:27:15.701Z,8.43
2023-11-30T00:29:42.589Z,10.13
2023-11-30T00:32:09.350Z,8.70
2023-11-30T00:34:36.105Z,8.82
2023-11-30T00:37:03.636Z,9.38
2023-11-30T00:39:30.475Z,8.80
2023-11-30T00:41:57.370Z,8.75
2023-11-30T00:44:24.445Z,9.40
2023-11-30T00:46:51.566Z,9.90
2023-11-30T00:49:18.388Z,8.25
2023-11-30T00:51:45.170Z,9.68
2023-11-30T00:54:12.035Z,8.57
2023-11-30T00:56:39.079Z,9.68
2023-11-30T00:59:05.837Z,10.70
2023-11-30T01:01:32.709Z,9.32
2023-11-30T01:03:59.596Z,8.43
2023-11-30T01:06:26.498Z,7.20
2023-11-30T01:08:53.416Z,8.30
2023-11-30T01:11:21.018Z,12.00
2023-11-30T01:13:47.944Z,8.98
2023-11-30T01:16:14.857Z,12.23
2023-11-30T01:18:41.837Z,9.05
2023-11-30T01:21:08.930Z,9.02
2023-11-30T01:23:36.500Z,8.18
2023-11-30T01:26:03.984Z,7.93
2023-11-30T01:28:30.962Z,10.60
2023-11-30T01:30:57.834Z,14.43
2023-11-30T01:33:24.684Z,10.25
2023-11-30T01:35:51.773Z,8.23
2023-11-30T01:38:18.601Z,8.90
2023-11-30T01:40:45.483Z,9.00
2023-11-30T01:43:12.298Z,9.63
2023-11-30T01:45:39.216Z,10.35
2023-11-30T01:48:06.385Z,8.32
2023-11-30T01:50:33.765Z,10.15
2023-11-30T01:53:01.214Z,9.18
2023-11-30T01:55:28.444Z,8.80
2023-11-30T01:57:55.425Z,9.00
2023-11-30T02:00:22.416Z,11.48
2023-11-30T02:02:50.151Z,7.00
2023-11-30T02:05:17.326Z,9.85
2023-11-30T02:07:44.112Z,9.52
2023-11-30T02:10:11.466Z,19.45
2023-11-30T02:12:38.258Z,8.57
2023-11-30T02:15:05.685Z,9.68
2023-11-30T02:17:32.587Z,9.82
2023-11-30T02:19:59.355Z,8.10
2023-11-30T02:22:26.216Z,9.93
2023-11-30T02:24:52.983Z,9.73
2023-11-30T02:27:20.721Z,10.30
2023-11-30T02:29:47.479Z,9.32
2023-11-30T02:32:14.585Z,9.90
2023-11-30T02:34:41.371Z,11.50
2023-11-30T02:37:08.937Z,11.35
2023-11-30T02:39:35.832Z,10.65
2023-11-30T02:42:02.680Z,10.50
2023-11-30T02:44:29.454Z,8.90
2023-11-30T02:46:56.871Z,10.43
2023-11-30T02:49:24.131Z,9.43
2023-11-30T02:51:50.961Z,9.98
2023-11-30T02:54:18.503Z,12.20
2023-11-30T02:56:45.431Z,10.40
2023-11-30T02:59:12.273Z,8.90
2023-11-30T03:01:50.784Z,12.07
2023-11-30T03:04:17.703Z,10.63
2023-11-30T03:06:48.622Z,10.75
2023-11-30T03:09:15.490Z,13.30
2023-11-30T03:11:42.299Z,10.32
2023-11-30T03:14:09.096Z,11.10
2023-11-30T03:16:36.064Z,11.18
2023-11-30T03:19:14.246Z,11.50
2023-11-30T03:24:10.932Z,11.38
2023-11-30T03:26:37.923Z,10.30
2023-11-30T03:29:05.896Z,10.20
2023-11-30T03:31:32.764Z,11.35
2023-11-30T03:33:59.693Z,12.57
2023-11-30T03:36:26.728Z,11.75
2023-11-30T03:41:24.466Z,12.35
2023-11-30T03:43:52.665Z,12.27
2023-11-30T03:46:22.446Z,12.68
2023-11-30T03:48:49.671Z,12.25
2023-11-30T03:51:16.639Z,12.95
2023-11-30T03:53:43.485Z,12.25
2023-11-30T03:56:10.603Z,13.40
2023-11-30T03:58:37.379Z,13.27
2023-11-30T04:01:04.872Z,11.80
2023-11-30T04:03:31.708Z,12.25
2023-11-30T04:05:58.664Z,14.25
2023-11-30T04:08:25.792Z,13.88
2023-11-30T04:10:52.643Z,12.73
2023-11-30T04:13:19.402Z,14.95
2023-11-30T04:15:46.206Z,14.13
2023-11-30T04:18:14.034Z,12.70
2023-11-30T04:20:40.844Z,13.23
2023-11-30T04:23:09.897Z,14.07
2023-11-30T04:25:36.820Z,12.82
2023-11-30T04:28:03.779Z,16.13
2023-11-30T04:30:30.663Z,13.68
2023-11-30T04:32:57.812Z,14.15
2023-11-30T04:37:53.101Z,14.25
2023-11-30T04:40:21.629Z,13.00
2023-11-30T04:42:48.377Z,13.73
2023-11-30T04:45:15.306Z,12.75
2023-11-30T04:47:43.249Z,14.82
2023-11-30T04:50:10.183Z,14.82
2023-11-30T04:52:36.956Z,14.13
2023-11-30T04:55:03.964Z,13.27
2023-11-30T04:57:30.784Z,12.15
2023-11-30T04:59:57.598Z,16.65
2023-11-30T05:02:24.558Z,11.45
2023-11-30T05:04:51.520Z,13.77
2023-11-30T05:07:18.437Z,13.32
2023-11-30T05:09:45.238Z,13.88
2023-11-30T05:12:12.211Z,13.25
2023-11-30T05:14:39.134Z,11.93
2023-11-30T05:17:05.977Z,16.40
2023-11-30T05:19:34.076Z,17.80
2023-11-30T05:22:00.833Z,11.80
2023-11-30T05:24:27.741Z,14.50
2023-11-30T05:26:54.573Z,12.52
2023-11-30T05:29:21.543Z,12.75
2023-11-30T05:31:48.359Z,13.57
2023-11-30T05:34:15.283Z,12.75
2023-11-30T05:36:42.458Z,13.88
2023-11-30T05:39:09.244Z,13.02
2023-11-30T05:41:36.067Z,11.25
2023-11-30T05:44:04.512Z,12.40
2023-11-30T05:46:31.305Z,11.35
2023-11-30T05:48:58.105Z,12.55
2023-11-30T05:51:25.446Z,12.75
2023-11-30T05:53:52.287Z,11.18
2023-11-30T05:56:19.208Z,12.10
2023-11-30T05:58:45.950Z,11.32
2023-11-30T06:01:12.895Z,14.95
2023-11-30T06:03:40.044Z,11.80
2023-11-30T06:06:10.532Z,12.63
2023-11-30T06:08:37.356Z,14.60
2023-11-30T06:11:04.579Z,13.50
2023-11-30T06:13:31.318Z,12.70
2023-11-30T06:15:58.169Z,10.98
2023-11-30T06:18:25.189Z,11.88
2023-11-30T06:20:52.093Z,11.82
2023-11-30T06:23:19.081Z,10.43
2023-11-30T06:25:45.815Z,11.88
2023-11-30T06:28:12.626Z,11.27
2023-11-30T06:30:40.001Z,10.73
2023-11-30T06:33:06.950Z,11.25
2023-11-30T06:35:33.932Z,12.43
2023-11-30T06:38:00.691Z,10.48
2023-11-30T06:40:27.575Z,11.48
2023-11-30T06:42:54.354Z,11.27
2023-11-30T06:45:21.174Z,10.80
2023-11-30T06:47:48.026Z,11.55
2023-11-30T06:50:14.880Z,10.63
2023-11-30T06:52:41.733Z,11.90
2023-11-30T06:55:08.679Z,11.95
2023-11-30T06:57:36.597Z,13.13
2023-11-30T07:00:04.966Z,12.82
2023-11-30T07:02:31.778Z,12.70
2023-11-30T07:04:58.785Z,10.80
2023-11-30T07:07:33.744Z,10.20
2023-11-30T07:10:03.219Z,12.23
2023-11-30T07:12:30.214Z,11.30
2023-11-30T07:14:57.044Z,11.65
2023-11-30T07:17:25.005Z,11.13
2023-11-30T07:19:53.524Z,10.95
2023-11-30T07:24:49.026Z,10.95
2023-11-30T07:27:19.771Z,12.45
2023-11-30T07:29:47.199Z,11.13
2023-11-30T07:32:17.257Z,10.82
2023-11-30T07:34:45.675Z,12.23
2023-11-30T07:37:13.019Z,12.27
2023-11-30T07:39:40.384Z,12.07
2023-11-30T07:42:08.006Z,12.35
2023-11-30T07:44:36.489Z,12.95
2023-11-30T07:47:03.601Z,12.20
2023-11-30T07:49:30.508Z,11.57
2023-11-30T07:51:57.567Z,11.95
2023-11-30T07:54:25.396Z,10.82
2023-11-30T07:56:52.240Z,11.90
2023-11-30T07:59:19.115Z,12.55
2023-11-30T08:01:46.039Z,12.05
2023-11-30T08:04:13.072Z,11.52
2023-11-30T08:06:40.372Z,14.38
2023-11-30T08:09:07.486Z,13.65
2023-11-30T08:11:34.370Z,12.93
2023-11-30T08:14:01.172Z,12.75
2023-11-30T08:16:28.052Z,11.60
2023-11-30T08:18:54.986Z,12.85
2023-11-30T08:21:22.864Z,12.63
2023-11-30T08:23:50.102Z,12.18
2023-11-30T08:26:17.236Z,11.50
2023-11-30T08:28:45.612Z,11.88
2023-11-30T08:31:13.015Z,11.20
2023-11-30T08:33:40.106Z,13.30
2023-11-30T08:36:07.428Z,12.40
2023-11-30T08:38:37.339Z,12.52
2023-11-30T08:41:04.955Z,12.55
2023-11-30T08:43:31.698Z,13.60
2023-11-30T08:45:58.581Z,14.30
2023-11-30T08:48:26.812Z,11.45
2023-11-30T08:50:54.637Z,12.73
2023-11-30T08:53:22.208Z,13.18
2023-11-30T08:55:49.168Z,12.20
2023-11-30T08:58:16.081Z,12.30
2023-11-30T09:00:43.580Z,12.20
2023-11-30T09:03:10.757Z,13.07
2023-11-30T09:05:37.858Z,16.13
2023-11-30T09:08:04.843Z,13.20
2023-11-30T09:10:31.689Z,14.55
2023-11-30T09:12:58.616Z,15.35
2023-11-30T09:15:25.507Z,13.07
2023-11-30T09:17:52.522Z,14.10
2023-11-30T09:20:21.231Z,12.15
2023-11-30T09:22:48.445Z,13.73
2023-11-30T09:25:15.344Z,14.35
2023-11-30T09:27:43.892Z,13.10
2023-11-30T09:32:39.518Z,11.07
2023-11-30T09:35:06.886Z,9.80
2023-11-30T09:37:33.809Z,9.70
2023-11-30T09:40:00.766Z,9.52
2023-11-30T09:42:29.279Z,9.65
2023-11-30T09:45:01.226Z,10.25
2023-11-30T09:47:28.226Z,9.35
2023-11-30T09:49:55.340Z,10.30
2023-11-30T09:52:22.684Z,9.95
2023-11-30T09:54:53.938Z,10.02
2023-11-30T09:57:20.846Z,8.50
2023-11-30T09:59:47.670Z,8.43
2023-11-30T10:02:14.638Z,8.25
2023-11-30T10:04:41.806Z,10.02
2023-11-30T10:07:08.974Z,9.98
2023-11-30T10:09:37.039Z,9.63
2023-11-30T10:12:04.946Z,10.35
2023-11-30T10:14:31.945Z,10.50
2023-11-30T10:17:00.861Z,10.70
2023-11-30T10:19:27.956Z,8.93
2023-11-30T10:21:58.665Z,8.77
2023-11-30T10:24:25.799Z,8.88
2023-11-30T10:26:53.917Z,8.70
2023-11-30T10:29:22.284Z,9.32
2023-11-30T10:31:52.480Z,9.85
2023-11-30T10:34:27.877Z,8.85
2023-11-30T10:36:56.550Z,9.38
2023-11-30T10:39:24.936Z,8.80
2023-11-30T10:44:27.609Z,11.25
2023-11-30T10:46:56.365Z,13.02
2023-11-30T10:49:25.200Z,13.95
2023-11-30T10:51:54.477Z,14.57
2023-11-30T10:54:40.745Z,10.48
2023-11-30T10:57:08.047Z,14.73
2023-11-30T10:59:35.051Z,13.48
2023-11-30T11:02:06.587Z,15.07
2023-11-30T11:04:33.836Z,13.98
2023-11-30T11:07:07.724Z,12.98
2023-11-30T11:09:55.385Z,13.75
2023-11-30T11:12:27.682Z,12.18
2023-11-30T11:15:15.525Z,11.35
2023-11-30T11:17:55.051Z,11.45
2023-11-30T11:20:27.642Z,11.98
2023-11-30T11:22:55.301Z,11.50
2023-11-30T11:25:22.301Z,10.57
2023-11-30T11:27:49.630Z,9.38
2023-11-30T11:30:16.750Z,10.35
2023-11-30T11:32:46.887Z,10.18
2023-11-30T11:35:13.733Z,10.20
2023-11-30T11:37:40.501Z,8.85
2023-11-30T11:40:07.780Z,10.30
2023-11-30T11:42:34.919Z,13.30
2023-11-30T11:45:05.575Z,10.25
2023-11-30T11:47:32.559Z,9.75
2023-11-30T11:50:00.597Z,8.73
2023-11-30T11:52:28.838Z,9.00
2023-11-30T11:55:05.011Z,9.68
2023-11-30T11:57:42.634Z,9.85
2023-11-30T12:00:15.400Z,11.25
2023-11-30T12:02:42.381Z,9.82
2023-11-30T12:05:26.681Z,9.95
2023-11-30T12:07:58.406Z,10.35
2023-11-30T12:10:32.800Z,11.02
2023-11-30T12:13:01.555Z,10.85
2023-11-30T12:15:29.418Z,10.32
2023-11-30T12:17:56.613Z,14.43
2023-11-30T12:20:23.751Z,13.02
2023-11-30T12:22:50.599Z,10.65
2023-11-30T12:25:17.840Z,13.15
2023-11-30T12:27:45.001Z,13.75
2023-11-30T12:30:12.530Z,11.38
2023-11-30T12:32:39.656Z,13.27
2023-11-30T12:35:08.071Z,12.27
2023-11-30T12:37:36.681Z,13.63
2023-11-30T12:40:04.962Z,13.75
2023-11-30T12:42:32.276Z,16.52
2023-11-30T12:44:59.509Z,13.20
2023-11-30T12:47:26.876Z,11.23
2023-11-30T12:49:53.852Z,12.73
2023-11-30T12:52:21.975Z,12.90
2023-11-30T12:54:50.592Z,12.55
2023-11-30T12:57:17.775Z,14.02
2023-11-30T12:59:44.978Z,12.82
2023-11-30T13:02:12.382Z,12.68
2023-11-30T13:04:40.738Z,13.25
2023-11-30T13:07:07.746Z,13.00
2023-11-30T13:09:36.314Z,13.23
2023-11-30T13:14:30.747Z,14.55
2023-11-30T13:16:57.711Z,20.13
2023-11-30T13:19:25.368Z,16.95
2023-11-30T13:21:53.084Z,15.45
2023-11-30T13:24:20.766Z,14.15
2023-11-30T13:26:49.251Z,15.80
2023-11-30T13:29:16.539Z,12.80
2023-11-30T13:31:44.296Z,12.90
2023-11-30T13:34:11.415Z,14.38
2023-11-30T13:36:38.333Z,13.38
2023-11-30T13:39:08.370Z,12.52
2023-11-30T13:41:35.191Z,13.40
2023-11-30T13:44:02.419Z,14.38
2023-11-30T13:46:29.232Z,13.52
2023-11-30T13:48:56.012Z,13.75
2023-11-30T13:51:23.359Z,13.30
2023-11-30T13:53:50.178Z,13.85
2023-11-30T13:56:19.498Z,12.68
2023-11-30T13:58:46.424Z,13.30
2023-11-30T14:01:13.622Z,13.25
2023-11-30T14:03:41.137Z,13.52
2023-11-30T14:06:10.615Z,12.00
2023-11-30T14:08:38.009Z,15.00
2023-11-30T14:11:10.064Z,14.52
2023-11-30T14:13:37.766Z,13.43
2023-11-30T14:16:06.063Z,13.98
2023-11-30T14:18:32.949Z,12.57
2023-11-30T14:21:00.666Z,12.32
2023-11-30T14:23:28.319Z,14.07
2023-11-30T14:25:56.041Z,13.38
2023-11-30T14:28:22.908Z,13.32
2023-11-30T14:30:49.868Z,14.68
2023-11-30T14:33:16.811Z,13.30
2023-11-30T14:35:43.734Z,13.00
2023-11-30T14:38:10.648Z,12.25
2023-11-30T14:40:37.716Z,15.77
2023-11-30T14:43:04.639Z,12.88
2023-11-30T14:45:31.948Z,15.68
2023-11-30T14:48:00.108Z,12.73
2023-11-30T14:50:27.348Z,14.50
2023-11-30T14:52:54.922Z,14.82
2023-11-30T14:55:21.830Z,13.40
2023-11-30T14:57:48.698Z,15.32
2023-11-30T15:00:18.481Z,13.80
2023-11-30T15:02:45.587Z,13.00
2023-11-30T15:05:15.479Z,14.50
2023-11-30T15:07:43.078Z,15.73
2023-11-30T15:10:12.364Z,17.17
2023-11-30T15:12:39.988Z,15.70
2023-11-30T15:15:14.545Z,17.17
2023-11-30T15:17:47.672Z,13.30
2023-11-30T15:20:15.299Z,12.65
2023-11-30T15:22:42.690Z,12.88
2023-11-30T15:25:17.462Z,13.10
2023-11-30T15:27:44.381Z,15.00
2023-11-30T15:30:12.082Z,13.48
2023-11-30T15:32:40.373Z,15.82
2023-11-30T15:35:07.492Z,12.55
2023-11-30T15:37:36.367Z,12.85
2023-11-30T15:40:09.710Z,12.20
2023-11-30T15:42:37.614Z,12.57
2023-11-30T15:45:05.305Z,14.98
2023-11-30T15:47:32.189Z,13.50
2023-11-30T15:49:59.031Z,12.63
2023-11-30T15:52:26.329Z,12.85
2023-11-30T15:54:54.308Z,12.27
2023-11-30T15:57:23.290Z,11.70
2023-11-30T15:59:50.124Z,11.20
2023-11-30T16:02:17.007Z,12.52
2023-11-30T16:04:44.153Z,11.95
2023-11-30T16:07:12.266Z,12.07
2023-11-30T16:09:39.195Z,12.45
2023-11-30T16:12:06.309Z,12.00
2023-11-30T16:14:34.730Z,11.77
2023-11-30T16:17:02.570Z,12.27
2023-11-30T16:19:29.318Z,12.30
2023-11-30T16:21:58.110Z,12.00
2023-11-30T16:24:25.295Z,11.00
2023-11-30T16:26:55.829Z,12.60
2023-11-30T16:29:23.654Z,14.30
2023-11-30T16:31:51.585Z,11.85
2023-11-30T16:34:20.456Z,12.40
2023-11-30T16:36:51.189Z,12.25
2023-11-30T16:39:18.182Z,11.82
2023-11-30T16:41:45.166Z,13.55
2023-11-30T16:44:12.676Z,12.05
2023-11-30T16:46:40.155Z,12.52
2023-11-30T16:49:07.367Z,13.38
2023-11-30T16:51:34.275Z,12.18
2023-11-30T16:54:01.084Z,15.57
2023-11-30T16:56:28.430Z,13.75
2023-11-30T16:58:55.687Z,12.82
2023-11-30T17:01:23.099Z,15.88
2023-11-30T17:03:50.098Z,15.07
2023-11-30T17:06:17.248Z,11.63
2023-11-30T17:08:44.239Z,13.57
2023-11-30T17:11:11.040Z,12.85
2023-11-30T17:13:38.005Z,13.50
2023-11-30T17:16:07.073Z,15.57
2023-11-30T17:18:36.161Z,15.77
2023-11-30T17:21:03.049Z,13.10
2023-11-30T17:23:29.939Z,14.23
2023-11-30T17:25:58.522Z,12.65
2023-11-30T17:28:25.425Z,13.80
2023-11-30T17:30:52.489Z,13.65
2023-11-30T17:33:19.596Z,12.80
2023-11-30T17:35:46.781Z,13.18
2023-11-30T17:38:13.703Z,13.57
2023-11-30T17:40:40.496Z,13.32
2023-11-30T17:43:08.113Z,13.25
2023-11-30T17:45:35.256Z,12.70
2023-11-30T17:48:06.333Z,15.50
2023-11-30T17:50:33.342Z,12.50
2023-11-30T17:53:01.945Z,15.43
2023-11-30T17:55:29.745Z,14.95
2023-11-30T17:57:57.014Z,15.25
2023-11-30T18:00:27.120Z,15.25
2023-11-30T18:02:54.154Z,14.65
2023-11-30T18:05:20.968Z,14.93
2023-11-30T18:07:47.755Z,14.52
2023-11-30T18:10:14.667Z,15.00
2023-11-30T18:12:41.533Z,14.57
2023-11-30T18:15:08.907Z,15.55
2023-11-30T18:17:35.735Z,15.18
2023-11-30T18:20:02.527Z,14.55
2023-11-30T18:22:33.778Z,13.80
2023-11-30T18:25:01.422Z,13.70
2023-11-30T18:27:28.389Z,14.68
2023-11-30T18:29:55.303Z,12.98
2023-11-30T18:32:22.175Z,14.45
2023-11-30T18:34:49.114Z,14.63
2023-11-30T18:37:16.763Z,15.88
2023-11-30T18:39:45.010Z,14.73
2023-11-30T18:42:12.421Z,12.80
2023-11-30T18:44:39.186Z,14.63
2023-11-30T18:47:06.136Z,14.75
2023-11-30T18:49:33.763Z,15.27
2023-11-30T18:52:00.760Z,15.02
2023-11-30T18:54:27.661Z,12.50
2023-11-30T18:56:54.528Z,15.38
2023-11-30T18:59:21.489Z,14.60
2023-11-30T19:01:48.584Z,15.75
2023-11-30T19:04:15.711Z,14.65
2023-11-30T19:06:42.591Z,16.00
2023-11-30T19:09:09.661Z,14.48
2023-11-30T19:11:36.438Z,14.82
2023-11-30T19:14:03.289Z,13.82
2023-11-30T19:16:30.980Z,14.52
2023-11-30T19:18:57.941Z,13.98
2023-11-30T19:21:24.874Z,14.48
2023-11-30T19:23:51.710Z,17.15
2023-11-30T19:26:18.483Z,16.55
2023-11-30T19:28:45.250Z,16.23
2023-11-30T19:31:12.214Z,15.75
2023-11-30T19:33:39.048Z,15.25
2023-11-30T19:36:06.171Z,16.92
2023-11-30T19:38:33.864Z,14.32
2023-11-30T19:41:01.550Z,14.32
2023-11-30T19:43:28.378Z,16.10
2023-11-30T19:45:55.934Z,16.40
2023-11-30T19:48:23.570Z,16.67
2023-11-30T19:50:50.471Z,15.45
2023-11-30T19:53:17.279Z,16.48
2023-11-30T19:55:47.433Z,19.63
2023-11-30T19:58:15.199Z,18.80
2023-11-30T20:00:44.465Z,16.60
2023-11-30T20:03:11.794Z,18.52
2023-11-30T20:05:38.770Z,17.88
2023-11-30T20:08:05.765Z,17.92
2023-11-30T20:10:32.605Z,16.95
2023-11-30T20:12:59.767Z,17.42
2023-11-30T20:15:29.151Z,19.25
2023-11-30T20:17:56.214Z,17.45
2023-11-30T20:20:23.345Z,16.48
2023-11-30T20:22:50.091Z,16.58
2023-11-30T20:25:18.013Z,16.08
2023-11-30T20:27:44.932Z,15.63
2023-11-30T20:30:12.586Z,17.10
2023-11-30T20:32:39.499Z,16.70
2023-11-30T20:35:06.675Z,17.05
2023-11-30T20:37:33.505Z,14.43
2023-11-30T20:40:00.425Z,14.77
2023-11-30T20:42:28.096Z,17.05
2023-11-30T20:44:55.151Z,15.65
2023-11-30T20:47:21.949Z,14.70
2023-11-30T20:49:48.898Z,18.17
2023-11-30T20:52:16.111Z,16.90
2023-11-30T20:54:43.895Z,16.10
2023-11-30T20:57:13.330Z,17.25
2023-11-30T20:59:42.416Z,14.70
2023-11-30T21:02:09.645Z,15.30
2023-11-30T21:04:37.603Z,17.15
2023-11-30T21:07:04.619Z,14.13
2023-11-30T21:09:32.888Z,15.13
2023-11-30T21:12:00.295Z,16.20
2023-11-30T21:14:27.251Z,14.95
2023-11-30T21:16:54.131Z,15.18
2023-11-30T21:19:21.060Z,14.57
2023-11-30T21:21:48.493Z,15.25
2023-11-30T21:24:16.004Z,15.68
2023-11-30T21:26:42.994Z,15.10
2023-11-30T21:29:09.909Z,17.67
2023-11-30T21:31:39.170Z,16.30
2023-11-30T21:34:06.672Z,16.08
2023-11-30T21:36:33.786Z,15.95
2023-11-30T21:39:00.930Z,13.70
2023-11-30T21:41:27.826Z,14.85
2023-11-30T21:43:54.609Z,13.93
2023-11-30T21:46:21.402Z,15.05
2023-11-30T21:48:48.482Z,15.52
2023-11-30T21:51:15.456Z,13.85
2023-11-30T21:53:42.214Z,12.73
2023-11-30T21:56:10.659Z,13.73
2023-11-30T21:58:38.453Z,13.80
2023-11-30T22:01:06.183Z,13.45
2023-11-30T22:03:33.433Z,13.57
2023-11-30T22:06:00.393Z,12.95
2023-11-30T22:08:28.639Z,14.73
2023-11-30T22:10:55.679Z,12.75
2023-11-30T22:13:22.609Z,10.93
2023-11-30T22:15:57.122Z,11.80
2023-11-30T22:18:30.866Z,13.40
2023-11-30T22:20:57.939Z,12.02
2023-11-30T22:23:24.907Z,13.00
2023-11-30T22:25:58.622Z,12.43
2023-11-30T22:28:30.551Z,11.70
2023-11-30T22:30:57.435Z,12.98
2023-11-30T22:33:24.330Z,10.98
2023-11-30T22:35:51.229Z,11.50
2023-11-30T22:38:18.162Z,12.38
2023-11-30T22:40:44.982Z,12.00
2023-11-30T22:43:11.777Z,10.90
2023-11-30T22:45:38.853Z,10.35
2023-11-30T22:48:05.835Z,12.10
2023-11-30T22:50:32.708Z,12.80
2023-11-30T22:52:59.670Z,12.80
2023-11-30T22:55:26.646Z,13.32
2023-11-30T22:57:54.003Z,12.68
2023-11-30T23:00:21.698Z,11.27
2023-11-30T23:02:49.302Z,13.00
2023-11-30T23:05:17.508Z,12.48
2023-11-30T23:07:44.622Z,12.95
2023-11-30T23:10:17.835Z,14.75
2023-11-30T23:12:45.731Z,15.82
2023-11-30T23:15:12.887Z,16.10
2023-11-30T23:17:39.714Z,16.63
2023-11-30T23:20:07.244Z,16.40
2023-11-30T23:22:34.633Z,15.18
2023-11-30T23:25:01.578Z,17.55
2023-11-30T23:27:28.431Z,16.00
2023-11-30T23:29:55.285Z,18.70
2023-11-30T23:32:22.067Z,18.35
2023-11-30T23:34:48.876Z,18.75
2023-11-30T23:37:15.809Z,17.13
2023-11-30T23:39:42.826Z,15.07
2023-11-30T23:42:09.796Z,17.55
2023-11-30T23:44:38.777Z,17.45
2023-11-30T23:47:05.783Z,16.02
2023-11-30T23:49:33.790Z,16.20
2023-11-30T23:52:00.855Z,21.50
2023-11-30T23:54:27.650Z,18.05
2023-11-30T23:56:54.945Z,18.58
2023-11-30T23:59:21.701Z,19.88
